createdAt,value
2022-08-05T00:00:35.109Z,0.00
2022-08-05T00:01:35.908Z,0.00
2022-08-05T00:02:35.123Z,0.00
2022-08-05T00:03:34.021Z,0.00
2022-08-05T00:04:34.075Z,0.00
2022-08-05T00:06:04.859Z,0.00
2022-08-05T00:06:35.942Z,0.00
2022-08-05T00:08:00.756Z,0.00
2022-08-05T00:08:36.122Z,0.00
2022-08-05T00:09:33.999Z,0.00
2022-08-05T00:10:33.983Z,0.00
2022-08-05T00:11:35.166Z,0.00
2022-08-05T00:12:34.997Z,0.00
2022-08-05T00:13:38.800Z,0.00
2022-08-05T00:14:33.954Z,0.00
2022-08-05T00:15:55.016Z,0.00
2022-08-05T00:16:35.890Z,0.00
2022-08-05T00:17:33.932Z,0.00
2022-08-05T00:18:33.897Z,0.00
2022-08-05T00:19:45.850Z,0.00
2022-08-05T00:20:36.902Z,0.00
2022-08-05T00:21:35.640Z,0.00
2022-08-05T00:22:33.877Z,0.00
2022-08-05T00:23:46.060Z,0.00
2022-08-05T00:24:34.877Z,0.00
2022-08-05T00:25:45.590Z,0.00
2022-08-05T00:26:34.837Z,0.00
2022-08-05T00:27:35.758Z,0.00
2022-08-05T00:28:33.861Z,0.00
2022-08-05T00:29:37.835Z,0.00
2022-08-05T00:30:33.827Z,0.00
2022-08-05T00:31:54.309Z,0.00
2022-08-05T00:32:34.799Z,0.00
2022-08-05T00:34:54.361Z,0.00
2022-08-05T00:34:56.204Z,0.00
2022-08-05T00:35:34.784Z,0.00
2022-08-05T00:37:09.860Z,0.00
2022-08-05T00:37:50.906Z,0.00
2022-08-05T00:38:34.759Z,0.00
2022-08-05T00:39:37.103Z,0.00
2022-08-05T00:40:34.793Z,0.00
2022-08-05T00:41:51.578Z,0.00
2022-08-05T00:42:34.733Z,0.00
2022-08-05T00:43:47.173Z,0.00
2022-08-05T00:44:34.709Z,0.00
2022-08-05T00:45:43.033Z,0.00
2022-08-05T00:46:42.521Z,0.00
2022-08-05T00:47:56.624Z,0.00
2022-08-05T00:48:34.705Z,0.00
2022-08-05T00:49:44.595Z,0.00
2022-08-05T00:50:34.664Z,0.00
2022-08-05T00:51:50.639Z,0.00
2022-08-05T00:52:34.635Z,0.00
2022-08-05T00:53:45.228Z,0.00
2022-08-05T00:54:34.694Z,0.00
2022-08-05T00:55:34.203Z,0.00
2022-08-05T00:56:35.404Z,0.00
2022-08-05T00:57:38.399Z,0.00
2022-08-05T00:58:35.411Z,0.00
2022-08-05T00:59:34.719Z,0.00
2022-08-05T01:00:34.623Z,0.00
2022-08-05T01:01:48.034Z,0.00
2022-08-05T01:02:34.562Z,0.00
2022-08-05T01:03:34.171Z,0.00
2022-08-05T01:04:33.553Z,0.00
2022-08-05T01:05:33.529Z,0.00
2022-08-05T01:06:33.555Z,0.00
2022-08-05T01:07:33.513Z,0.00
2022-08-05T01:08:42.914Z,0.00
2022-08-05T01:09:35.018Z,0.00
2022-08-05T01:10:33.537Z,0.00
2022-08-05T01:11:37.386Z,0.00
2022-08-05T01:12:33.493Z,0.00
2022-08-05T01:13:58.735Z,0.00
2022-08-05T01:14:34.503Z,0.00
2022-08-05T01:15:36.471Z,0.00
2022-08-05T01:16:34.415Z,0.00
2022-08-05T01:17:40.189Z,0.00
2022-08-05T01:18:34.490Z,0.00
2022-08-05T01:20:01.682Z,0.00
2022-08-05T01:20:34.442Z,0.00
2022-08-05T01:21:38.235Z,0.00
2022-08-05T01:22:34.406Z,0.00
2022-08-05T01:23:34.908Z,0.00
2022-08-05T01:24:33.423Z,0.00
2022-08-05T01:25:40.210Z,0.00
2022-08-05T01:26:34.382Z,0.00
2022-08-05T01:27:33.369Z,0.00
2022-08-05T01:28:33.469Z,0.00
2022-08-05T01:29:34.916Z,0.00
2022-08-05T01:30:34.023Z,0.00
2022-08-05T01:31:33.368Z,0.00
2022-08-05T01:32:34.324Z,0.00
2022-08-05T01:33:35.440Z,0.00
2022-08-05T01:34:33.321Z,0.00
2022-08-05T01:35:50.708Z,0.00
2022-08-05T01:36:34.305Z,0.00
2022-08-05T01:37:34.298Z,0.00
2022-08-05T01:38:33.330Z,0.00
2022-08-05T01:39:36.079Z,0.00
2022-08-05T01:40:34.269Z,0.00
2022-08-05T01:41:33.288Z,0.00
2022-08-05T01:42:33.257Z,0.00
2022-08-05T01:43:33.281Z,0.00
2022-08-05T01:44:34.234Z,0.00
2022-08-05T02:02:38.707Z,0.00
2022-08-05T02:03:39.744Z,0.00
2022-08-05T02:04:40.618Z,0.00
2022-08-05T02:05:39.839Z,0.00
2022-08-05T02:06:39.835Z,0.00
2022-08-05T02:07:39.809Z,0.00
2022-08-05T02:08:44.749Z,0.00
2022-08-05T02:09:41.797Z,0.00
2022-08-05T02:10:39.905Z,0.00
2022-08-05T02:11:42.167Z,0.00
2022-08-05T02:12:40.778Z,0.00
2022-08-05T02:13:53.233Z,0.00
2022-08-05T02:14:40.755Z,0.00
2022-08-05T02:16:16.452Z,0.00
2022-08-05T02:16:39.735Z,0.00
2022-08-05T02:18:31.767Z,0.00
2022-08-05T02:18:40.731Z,0.00
2022-08-05T02:19:47.382Z,0.00
2022-08-05T02:20:40.809Z,0.00
2022-08-05T02:21:43.406Z,0.00
2022-08-05T02:22:40.720Z,0.00
2022-08-05T02:23:39.678Z,0.00
2022-08-05T02:24:39.673Z,0.00
2022-08-05T02:25:49.024Z,0.00
2022-08-05T02:26:41.088Z,0.00
2022-08-05T02:27:57.976Z,0.00
2022-08-05T02:28:41.783Z,0.00
2022-08-05T02:29:58.730Z,0.00
2022-08-05T02:30:54.215Z,0.00
2022-08-05T02:31:40.630Z,0.00
2022-08-05T02:32:39.609Z,0.00
2022-08-05T02:33:39.654Z,0.00
2022-08-05T02:34:40.022Z,0.00
2022-08-05T02:35:44.893Z,0.00
2022-08-05T02:36:40.576Z,0.00
2022-08-05T02:37:39.637Z,0.00
2022-08-05T02:38:39.581Z,0.00
2022-08-05T02:39:41.143Z,0.00
2022-08-05T02:40:40.522Z,0.00
2022-08-05T02:41:57.539Z,0.00
2022-08-05T02:42:40.540Z,0.00
2022-08-05T02:44:06.886Z,0.00
2022-08-05T02:44:40.538Z,0.00
2022-08-05T02:45:52.783Z,0.00
2022-08-05T02:46:53.456Z,0.00
2022-08-05T02:48:06.337Z,0.00
2022-08-05T02:48:40.506Z,0.00
2022-08-05T02:49:40.591Z,0.00
2022-08-05T02:50:39.479Z,0.00
2022-08-05T02:52:03.750Z,0.00
2022-08-05T02:52:40.465Z,0.00
2022-08-05T02:53:40.423Z,0.00
2022-08-05T02:54:41.129Z,0.00
2022-08-05T02:55:54.009Z,0.00
2022-08-05T02:56:40.443Z,0.00
2022-08-05T02:58:10.788Z,0.00
2022-08-05T02:58:43.644Z,0.00
2022-08-05T02:59:50.310Z,0.00
2022-08-05T03:00:40.399Z,0.00
2022-08-05T03:01:39.463Z,0.00
2022-08-05T03:02:39.948Z,0.00
2022-08-05T03:04:02.709Z,0.00
2022-08-05T03:04:40.399Z,0.00
2022-08-05T03:06:54.598Z,0.00
2022-08-05T03:06:55.753Z,0.00
2022-08-05T03:08:01.698Z,0.00
2022-08-05T03:08:42.398Z,0.00
2022-08-05T03:09:43.887Z,0.00
2022-08-05T03:10:40.358Z,0.00
2022-08-05T03:11:54.671Z,0.00
2022-08-05T03:12:40.296Z,0.00
2022-08-05T03:13:51.002Z,0.00
2022-08-05T03:14:46.117Z,0.00
2022-08-05T03:15:40.299Z,0.00
2022-08-05T03:16:39.282Z,0.00
2022-08-05T03:17:41.548Z,0.00
2022-08-05T03:18:39.263Z,0.00
2022-08-05T03:19:39.305Z,0.00
2022-08-05T03:20:39.274Z,0.00
2022-08-05T03:21:41.729Z,0.00
2022-08-05T03:22:44.198Z,0.00
2022-08-05T03:23:40.264Z,0.00
2022-08-05T03:24:39.210Z,0.00
2022-08-05T03:26:04.473Z,0.00
2022-08-05T03:26:40.243Z,0.00
2022-08-05T03:27:58.905Z,0.00
2022-08-05T03:28:40.194Z,0.00
2022-08-05T03:29:44.691Z,0.00
2022-08-05T03:30:41.221Z,0.00
2022-08-05T03:31:56.052Z,0.00
2022-08-05T03:32:40.162Z,0.00
2022-08-05T03:33:49.264Z,0.00
2022-08-05T03:34:40.141Z,0.00
2022-08-05T03:35:41.729Z,0.00
2022-08-05T03:36:39.153Z,0.00
2022-08-05T03:37:46.597Z,0.00
2022-08-05T03:38:40.099Z,0.00
2022-08-05T03:39:59.357Z,0.00
2022-08-05T03:40:40.146Z,0.00
2022-08-05T03:41:46.710Z,0.00
2022-08-05T03:42:51.423Z,0.00
2022-08-05T03:44:08.201Z,0.00
2022-08-05T03:44:40.091Z,0.00
2022-08-05T03:45:57.468Z,0.00
2022-08-05T03:46:40.125Z,0.00
2022-08-05T04:02:05.184Z,0.00
2022-08-05T04:03:05.084Z,0.00
2022-08-05T04:04:10.677Z,0.00
2022-08-05T04:05:06.211Z,0.00
2022-08-05T04:06:06.181Z,0.00
2022-08-05T04:07:06.206Z,0.00
2022-08-05T04:08:14.697Z,0.00
2022-08-05T04:09:07.165Z,0.00
2022-08-05T04:10:06.152Z,0.00
2022-08-05T04:11:06.161Z,0.00
2022-08-05T04:12:24.585Z,0.00
2022-08-05T04:13:07.148Z,0.00
2022-08-05T04:14:06.156Z,0.00
2022-08-05T04:15:06.126Z,0.00
2022-08-05T04:16:06.124Z,0.00
2022-08-05T04:17:06.101Z,0.00
2022-08-05T04:18:07.413Z,5.62
2022-08-05T04:19:10.700Z,5.62
2022-08-05T04:20:06.109Z,5.62
2022-08-05T04:21:06.076Z,5.62
2022-08-05T04:22:11.638Z,5.62
2022-08-05T04:23:08.071Z,11.25
2022-08-05T04:24:08.903Z,11.25
2022-08-05T04:25:07.796Z,11.25
2022-08-05T04:26:06.046Z,11.25
2022-08-05T04:27:06.044Z,16.88
2022-08-05T04:28:12.726Z,16.88
2022-08-05T04:29:07.217Z,16.88
2022-08-05T04:30:06.119Z,16.88
2022-08-05T04:31:08.263Z,11.25
2022-08-05T04:32:06.007Z,11.25
2022-08-05T04:33:06.000Z,11.25
2022-08-05T04:34:18.717Z,11.25
2022-08-05T04:35:06.972Z,5.62
2022-08-05T04:36:10.831Z,5.62
2022-08-05T04:37:06.957Z,5.62
2022-08-05T04:38:06.816Z,5.62
2022-08-05T04:39:05.971Z,5.62
2022-08-05T04:40:06.026Z,5.62
2022-08-05T04:41:05.978Z,5.62
2022-08-05T04:42:05.918Z,5.62
2022-08-05T04:43:05.936Z,5.62
2022-08-05T04:44:09.621Z,5.62
2022-08-05T04:45:05.920Z,5.62
2022-08-05T04:46:05.886Z,5.62
2022-08-05T04:47:09.467Z,5.62
2022-08-05T04:48:05.859Z,5.62
2022-08-05T04:49:05.864Z,5.62
2022-08-05T04:50:11.194Z,5.62
2022-08-05T04:51:11.199Z,5.62
2022-08-05T04:52:07.785Z,5.62
2022-08-05T04:53:05.859Z,5.62
2022-08-05T04:54:05.813Z,5.62
2022-08-05T04:55:14.569Z,11.25
2022-08-05T04:56:33.214Z,11.25
2022-08-05T04:57:06.805Z,11.25
2022-08-05T04:58:05.789Z,11.25
2022-08-05T04:59:24.015Z,16.88
2022-08-05T05:00:06.821Z,16.88
2022-08-05T05:01:05.831Z,16.88
2022-08-05T05:02:37.402Z,16.88
2022-08-05T05:03:07.340Z,16.88
2022-08-05T05:04:05.748Z,16.88
2022-08-05T05:06:37.051Z,16.88
2022-08-05T05:06:40.468Z,16.88
2022-08-05T05:09:05.557Z,16.88
2022-08-05T05:10:10.415Z,16.88
2022-08-05T05:11:04.437Z,11.25
2022-08-05T05:12:36.705Z,11.25
2022-08-05T05:13:04.697Z,11.25
2022-08-05T05:14:04.429Z,11.25
2022-08-05T05:15:04.446Z,11.25
2022-08-05T05:16:06.994Z,11.25
2022-08-05T05:17:56.566Z,16.88
2022-08-05T05:18:05.383Z,16.88
2022-08-05T05:19:18.932Z,16.88
2022-08-05T05:20:06.419Z,16.88
2022-08-05T05:21:05.546Z,16.88
2022-08-05T05:22:23.106Z,16.88
2022-08-05T05:23:08.023Z,11.25
2022-08-05T05:24:09.129Z,11.25
2022-08-05T05:25:16.750Z,11.25
2022-08-05T05:26:05.343Z,11.25
2022-08-05T05:27:04.346Z,11.25
2022-08-05T05:28:04.331Z,11.25
2022-08-05T05:29:10.170Z,11.25
2022-08-05T05:30:05.483Z,11.25
2022-08-05T05:31:05.581Z,11.25
2022-08-05T05:32:04.308Z,11.25
2022-08-05T05:33:16.269Z,11.25
2022-08-05T05:34:05.266Z,11.25
2022-08-05T05:35:04.288Z,16.88
2022-08-05T05:36:04.266Z,16.88
2022-08-05T05:37:04.263Z,16.88
2022-08-05T05:38:05.631Z,16.88
2022-08-05T05:39:04.348Z,16.88
2022-08-05T05:40:04.215Z,22.50
2022-08-05T05:41:04.206Z,22.50
2022-08-05T05:42:04.221Z,22.50
2022-08-05T05:43:04.205Z,22.50
2022-08-05T05:44:04.188Z,28.12
2022-08-05T05:45:05.229Z,28.12
2022-08-05T05:46:05.294Z,33.75
2022-08-05T05:47:13.268Z,39.38
2022-08-05T05:48:05.567Z,39.38
2022-08-05T05:49:06.476Z,45.00
2022-08-05T05:50:05.126Z,45.00
2022-08-05T05:51:15.299Z,45.00
2022-08-05T05:52:05.937Z,45.00
2022-08-05T05:53:20.849Z,50.62
2022-08-05T05:54:05.149Z,50.62
2022-08-05T05:55:07.446Z,56.25
2022-08-05T05:56:05.120Z,67.50
2022-08-05T05:57:04.088Z,73.12
2022-08-05T05:58:05.075Z,73.12
2022-08-05T05:59:05.378Z,67.50
2022-08-05T06:00:04.101Z,67.50
2022-08-05T06:01:12.858Z,67.50
2022-08-05T06:02:05.068Z,73.12
2022-08-05T06:03:40.239Z,73.12
2022-08-05T06:04:05.078Z,73.12
2022-08-05T06:05:10.193Z,73.12
2022-08-05T06:06:05.010Z,73.12
2022-08-05T06:07:04.567Z,73.12
2022-08-05T06:08:04.036Z,78.75
2022-08-05T06:09:04.251Z,90.00
2022-08-05T06:10:08.327Z,95.62
2022-08-05T06:11:05.970Z,106.88
2022-08-05T06:12:03.999Z,112.50
2022-08-05T06:13:04.006Z,118.12
2022-08-05T06:14:03.993Z,123.75
2022-08-05T06:15:03.963Z,129.38
2022-08-05T06:16:30.546Z,140.62
2022-08-05T06:17:22.129Z,140.62
2022-08-05T06:18:04.949Z,146.25
2022-08-05T06:19:05.722Z,140.62
2022-08-05T06:20:03.936Z,129.38
2022-08-05T06:21:03.914Z,118.12
2022-08-05T06:22:03.895Z,101.25
2022-08-05T06:23:04.177Z,90.00
2022-08-05T06:24:03.900Z,84.38
2022-08-05T06:25:59.642Z,84.38
2022-08-05T06:26:13.928Z,90.00
2022-08-05T06:27:04.864Z,95.62
2022-08-05T06:28:11.918Z,106.88
2022-08-05T06:29:23.471Z,106.88
2022-08-05T06:30:17.853Z,118.12
2022-08-05T06:31:11.202Z,129.38
2022-08-05T06:32:04.828Z,151.88
2022-08-05T06:33:04.824Z,174.38
2022-08-05T06:34:07.735Z,208.12
2022-08-05T06:35:15.246Z,253.12
2022-08-05T06:36:09.729Z,286.88
2022-08-05T06:37:04.787Z,326.25
2022-08-05T06:38:10.016Z,382.50
2022-08-05T06:39:05.811Z,438.75
2022-08-05T06:40:03.794Z,534.38
2022-08-05T06:41:03.771Z,2154.38
2022-08-05T06:42:03.944Z,961.88
2022-08-05T06:43:03.762Z,2345.62
2022-08-05T06:44:03.728Z,900.00
2022-08-05T06:45:05.601Z,1035.00
2022-08-05T06:46:07.026Z,1029.38
2022-08-05T06:47:03.733Z,1344.38
2022-08-05T06:48:37.078Z,1552.50
2022-08-05T06:49:07.545Z,765.00
2022-08-05T06:50:05.095Z,714.38
2022-08-05T06:51:03.731Z,781.88
2022-08-05T06:52:04.691Z,776.25
2022-08-05T06:53:19.604Z,697.50
2022-08-05T06:54:04.688Z,646.88
2022-08-05T06:55:03.675Z,663.75
2022-08-05T06:56:03.646Z,691.88
2022-08-05T06:57:13.827Z,708.75
2022-08-05T06:58:20.285Z,691.88
2022-08-05T06:59:08.667Z,753.75
2022-08-05T07:00:03.615Z,916.88
2022-08-05T07:01:03.676Z,1890.00
2022-08-05T07:02:03.614Z,3628.12
2022-08-05T07:03:03.578Z,3926.25
2022-08-05T07:04:03.581Z,3819.38
2022-08-05T07:05:03.604Z,1670.62
2022-08-05T07:06:05.648Z,2728.12
2022-08-05T07:07:06.261Z,1243.12
2022-08-05T07:08:03.589Z,2103.75
2022-08-05T07:09:03.983Z,2739.38
2022-08-05T07:10:03.759Z,2435.62
2022-08-05T07:11:03.529Z,2317.50
2022-08-05T07:12:03.611Z,1485.00
2022-08-05T07:13:03.515Z,1648.12
2022-08-05T07:14:03.535Z,1749.38
2022-08-05T07:15:03.542Z,1198.12
2022-08-05T07:16:04.587Z,978.75
2022-08-05T07:18:00.541Z,810.00
2022-08-05T07:18:08.536Z,748.12
2022-08-05T07:19:04.484Z,731.25
2022-08-05T07:21:05.753Z,810.00
2022-08-05T07:22:03.441Z,725.62
2022-08-05T07:23:04.543Z,765.00
2022-08-05T07:24:03.459Z,624.38
2022-08-05T07:25:23.870Z,663.75
2022-08-05T07:26:04.430Z,506.25
2022-08-05T07:27:03.438Z,410.62
2022-08-05T07:28:08.209Z,365.62
2022-08-05T07:29:05.426Z,326.25
2022-08-05T07:30:24.083Z,303.75
2022-08-05T07:31:04.363Z,292.50
2022-08-05T07:32:04.054Z,286.88
2022-08-05T07:33:05.562Z,286.88
2022-08-05T07:34:04.356Z,303.75
2022-08-05T07:35:56.748Z,298.12
2022-08-05T07:36:20.891Z,292.50
2022-08-05T07:37:05.338Z,326.25
2022-08-05T07:38:03.315Z,382.50
2022-08-05T07:39:03.330Z,455.62
2022-08-05T07:40:26.340Z,697.50
2022-08-05T07:42:07.028Z,573.75
2022-08-05T07:42:14.677Z,748.12
2022-08-05T07:43:04.874Z,877.50
2022-08-05T07:44:05.284Z,905.62
2022-08-05T07:45:03.247Z,635.62
2022-08-05T07:46:04.273Z,517.50
2022-08-05T07:47:07.904Z,466.88
2022-08-05T07:48:04.235Z,450.00
2022-08-05T07:49:06.030Z,427.50
2022-08-05T07:50:06.498Z,405.00
2022-08-05T07:51:03.261Z,410.62
2022-08-05T07:52:04.235Z,427.50
2022-08-05T07:53:03.201Z,444.38
2022-08-05T07:54:03.225Z,472.50
2022-08-05T07:55:03.198Z,478.12
2022-08-05T07:56:05.590Z,450.00
2022-08-05T07:57:41.973Z,450.00
2022-08-05T07:58:05.656Z,450.00
2022-08-05T07:59:03.696Z,489.38
2022-08-05T08:00:03.207Z,523.12
2022-08-05T08:01:06.149Z,787.50
2022-08-05T08:02:04.158Z,556.88
2022-08-05T08:03:14.290Z,466.88
2022-08-05T08:04:04.119Z,416.25
2022-08-05T08:05:03.105Z,376.88
2022-08-05T08:06:03.140Z,354.38
2022-08-05T08:07:05.427Z,354.38
2022-08-05T08:08:03.129Z,354.38
2022-08-05T08:09:03.077Z,360.00
2022-08-05T08:10:03.069Z,376.88
2022-08-05T08:11:03.130Z,399.38
2022-08-05T08:12:11.465Z,393.75
2022-08-05T08:13:05.118Z,410.62
2022-08-05T08:14:03.042Z,421.88
2022-08-05T08:15:03.509Z,416.25
2022-08-05T08:16:51.007Z,410.62
2022-08-05T08:17:04.022Z,427.50
2022-08-05T08:18:05.032Z,506.25
2022-08-05T08:19:04.017Z,562.50
2022-08-05T08:20:21.107Z,658.12
2022-08-05T08:21:04.202Z,652.50
2022-08-05T08:22:04.990Z,703.12
2022-08-05T08:23:03.028Z,725.62
2022-08-05T08:24:05.298Z,838.12
2022-08-05T08:25:16.062Z,1800.00
2022-08-05T08:26:04.813Z,1485.00
2022-08-05T08:27:02.951Z,1220.62
2022-08-05T08:28:02.983Z,1102.50
2022-08-05T08:29:22.192Z,1057.50
2022-08-05T08:30:27.677Z,1006.88
2022-08-05T08:31:04.311Z,905.62
2022-08-05T08:32:02.910Z,832.50
2022-08-05T08:33:08.083Z,776.25
2022-08-05T08:34:03.899Z,731.25
2022-08-05T08:35:02.871Z,697.50
2022-08-05T08:36:37.129Z,680.62
2022-08-05T08:37:05.625Z,658.12
2022-08-05T08:38:02.883Z,658.12
2022-08-05T08:39:02.901Z,646.88
2022-08-05T08:40:04.392Z,652.50
2022-08-05T08:41:02.853Z,652.50
2022-08-05T08:42:05.468Z,646.88
2022-08-05T08:45:16.263Z,630.00
2022-08-05T08:45:23.211Z,618.75
2022-08-05T08:45:25.207Z,618.75
2022-08-05T08:46:03.792Z,624.38
2022-08-05T08:47:02.789Z,646.88
2022-08-05T08:48:12.330Z,675.00
2022-08-05T08:50:13.106Z,731.25
2022-08-05T08:50:31.062Z,894.38
2022-08-05T08:51:30.644Z,939.38
2022-08-05T08:52:13.106Z,961.88
2022-08-05T08:53:11.858Z,1068.75
2022-08-05T08:54:03.723Z,1265.62
2022-08-05T08:55:02.735Z,1434.38
2022-08-05T08:56:06.054Z,1563.75
2022-08-05T08:57:03.809Z,1642.50
2022-08-05T08:58:02.724Z,1957.50
2022-08-05T08:59:07.071Z,1890.00
2022-08-05T09:00:04.271Z,1372.50
2022-08-05T09:01:02.806Z,1535.62
2022-08-05T09:02:03.256Z,1203.75
2022-08-05T09:03:02.689Z,1479.38
2022-08-05T09:04:02.688Z,1423.12
2022-08-05T09:05:17.399Z,1108.12
2022-08-05T09:06:08.840Z,1355.62
2022-08-05T09:07:03.639Z,973.12
2022-08-05T09:08:03.617Z,883.12
2022-08-05T09:09:02.646Z,826.88
2022-08-05T09:10:02.617Z,849.38
2022-08-05T09:11:03.236Z,798.75
2022-08-05T09:12:13.341Z,787.50
2022-08-05T09:13:05.266Z,781.88
2022-08-05T09:14:54.771Z,770.62
2022-08-05T09:15:06.058Z,736.88
2022-08-05T09:16:02.588Z,720.00
2022-08-05T09:17:02.572Z,686.25
2022-08-05T09:18:02.560Z,669.38
2022-08-05T09:19:06.809Z,686.25
2022-08-05T09:20:04.729Z,680.62
2022-08-05T09:21:03.542Z,675.00
2022-08-05T09:22:22.109Z,675.00
2022-08-05T09:23:05.054Z,663.75
2022-08-05T09:24:02.603Z,663.75
2022-08-05T09:25:13.836Z,658.12
2022-08-05T09:26:06.299Z,663.75
2022-08-05T09:27:03.546Z,697.50
2022-08-05T09:28:04.169Z,691.88
2022-08-05T09:29:02.489Z,663.75
2022-08-05T09:30:06.448Z,646.88
2022-08-05T09:31:03.492Z,646.88
2022-08-05T09:32:41.787Z,680.62
2022-08-05T09:33:04.616Z,669.38
2022-08-05T09:34:02.454Z,703.12
2022-08-05T09:35:02.503Z,731.25
2022-08-05T09:36:11.568Z,765.00
2022-08-05T09:37:04.439Z,787.50
2022-08-05T09:38:17.021Z,759.38
2022-08-05T09:39:03.501Z,742.50
2022-08-05T09:40:34.889Z,770.62
2022-08-05T09:41:02.409Z,787.50
2022-08-05T09:42:02.389Z,804.38
2022-08-05T09:43:02.399Z,781.88
2022-08-05T09:44:03.375Z,781.88
2022-08-05T09:45:17.907Z,776.25
2022-08-05T09:46:07.706Z,815.62
2022-08-05T09:47:03.468Z,877.50
2022-08-05T09:48:03.376Z,860.62
2022-08-05T09:49:08.214Z,888.75
2022-08-05T09:50:03.620Z,900.00
2022-08-05T09:51:03.317Z,990.00
2022-08-05T09:52:03.308Z,1051.88
2022-08-05T09:53:02.311Z,973.12
2022-08-05T09:54:02.291Z,978.75
2022-08-05T09:55:55.610Z,888.75
2022-08-05T09:56:04.977Z,815.62
2022-08-05T09:57:03.304Z,776.25
2022-08-05T09:58:03.268Z,765.00
2022-08-05T09:59:04.234Z,765.00
2022-08-05T10:00:07.325Z,776.25
2022-08-05T10:01:14.738Z,776.25
2022-08-05T10:02:03.269Z,765.00
2022-08-05T10:03:02.266Z,961.88
2022-08-05T10:04:02.287Z,1018.12
2022-08-05T10:05:02.226Z,888.75
2022-08-05T10:06:06.017Z,877.50
2022-08-05T10:07:19.681Z,832.50
2022-08-05T10:08:35.823Z,905.62
2022-08-05T10:09:03.194Z,821.25
2022-08-05T10:10:14.042Z,832.50
2022-08-05T10:11:03.175Z,798.75
2022-08-05T10:12:07.268Z,810.00
2022-08-05T10:13:09.700Z,832.50
2022-08-05T10:14:03.148Z,832.50
2022-08-05T10:15:02.162Z,832.50
2022-08-05T10:16:02.152Z,810.00
2022-08-05T10:17:02.122Z,787.50
2022-08-05T10:18:02.164Z,787.50
2022-08-05T10:19:09.351Z,798.75
2022-08-05T10:20:09.846Z,798.75
2022-08-05T10:21:08.575Z,781.88
2022-08-05T10:22:03.107Z,753.75
2022-08-05T10:23:02.123Z,742.50
2022-08-05T10:24:06.263Z,731.25
2022-08-05T10:25:03.063Z,742.50
2022-08-05T10:26:03.075Z,736.88
2022-08-05T10:27:02.093Z,731.25
2022-08-05T10:28:16.611Z,731.25
2022-08-05T10:29:03.097Z,736.88
2022-08-05T10:30:41.068Z,759.38
2022-08-05T10:32:54.430Z,832.50
2022-08-05T10:32:54.908Z,776.25
2022-08-05T10:33:03.257Z,967.50
2022-08-05T10:34:02.035Z,933.75
2022-08-05T10:35:02.000Z,871.88
2022-08-05T10:36:01.986Z,883.12
2022-08-05T10:37:02.021Z,888.75
2022-08-05T10:38:01.991Z,871.88
2022-08-05T10:39:05.214Z,877.50
2022-08-05T10:40:16.727Z,911.25
2022-08-05T10:41:03.034Z,866.25
2022-08-05T10:42:01.931Z,826.88
2022-08-05T10:43:01.957Z,860.62
2022-08-05T10:44:01.919Z,815.62
2022-08-05T10:45:01.928Z,804.38
2022-08-05T10:46:06.633Z,798.75
2022-08-05T10:47:01.936Z,776.25
2022-08-05T10:48:29.414Z,748.12
2022-08-05T10:49:09.786Z,720.00
2022-08-05T10:50:20.803Z,708.75
2022-08-05T10:51:03.346Z,708.75
2022-08-05T10:52:02.738Z,725.62
2022-08-05T10:53:01.888Z,736.88
2022-08-05T10:54:23.371Z,748.12
2022-08-05T10:55:02.840Z,770.62
2022-08-05T10:56:04.645Z,793.12
2022-08-05T10:57:02.844Z,770.62
2022-08-05T10:58:01.909Z,765.00
2022-08-05T10:59:07.318Z,770.62
2022-08-05T11:00:09.068Z,765.00
2022-08-05T11:01:03.310Z,753.75
2022-08-05T11:02:04.983Z,708.75
2022-08-05T11:03:23.831Z,703.12
2022-08-05T11:04:02.828Z,680.62
2022-08-05T11:05:01.787Z,697.50
2022-08-05T11:06:01.766Z,697.50
2022-08-05T11:07:01.794Z,697.50
2022-08-05T11:08:12.678Z,680.62
2022-08-05T11:09:03.743Z,663.75
2022-08-05T11:10:10.098Z,669.38
2022-08-05T11:11:07.776Z,652.50
2022-08-05T11:12:02.718Z,669.38
2022-08-05T11:13:01.711Z,669.38
2022-08-05T11:14:01.731Z,669.38
2022-08-05T11:15:19.467Z,663.75
2022-08-05T11:16:02.682Z,675.00
2022-08-05T11:17:14.153Z,697.50
2022-08-05T11:18:03.715Z,708.75
2022-08-05T11:19:01.698Z,697.50
2022-08-05T11:20:10.226Z,697.50
2022-08-05T11:21:02.791Z,703.12
2022-08-05T11:22:01.634Z,714.38
2022-08-05T11:23:06.097Z,736.88
2022-08-05T11:24:14.646Z,765.00
2022-08-05T11:25:26.707Z,770.62
2022-08-05T11:26:04.585Z,753.75
2022-08-05T11:27:01.634Z,770.62
2022-08-05T11:28:01.596Z,770.62
2022-08-05T11:29:04.302Z,753.75
2022-08-05T11:30:03.576Z,720.00
2022-08-05T11:31:01.590Z,680.62
2022-08-05T11:32:01.584Z,646.88
2022-08-05T11:33:01.593Z,601.88
2022-08-05T11:34:01.537Z,562.50
2022-08-05T11:35:01.544Z,534.38
2022-08-05T11:36:07.495Z,517.50
2022-08-05T11:37:02.892Z,517.50
2022-08-05T11:38:30.794Z,517.50
2022-08-05T11:39:02.637Z,517.50
2022-08-05T11:40:03.484Z,517.50
2022-08-05T11:41:12.784Z,523.12
2022-08-05T11:42:04.595Z,568.12
2022-08-05T11:43:02.479Z,596.25
2022-08-05T11:44:05.531Z,573.75
2022-08-05T11:45:02.498Z,579.38
2022-08-05T11:46:27.241Z,601.88
2022-08-05T11:47:14.052Z,596.25
2022-08-05T11:48:02.488Z,590.62
2022-08-05T11:49:01.465Z,596.25
2022-08-05T11:50:01.689Z,624.38
2022-08-05T11:51:01.409Z,624.38
2022-08-05T11:52:01.488Z,630.00
2022-08-05T11:53:02.427Z,613.12
2022-08-05T11:54:01.386Z,613.12
2022-08-05T11:55:07.180Z,624.38
2022-08-05T11:56:02.382Z,635.62
2022-08-05T11:57:01.376Z,635.62
2022-08-05T11:58:10.223Z,630.00
2022-08-05T11:59:02.410Z,624.38
2022-08-05T12:00:01.371Z,613.12
2022-08-05T12:01:01.377Z,613.12
2022-08-05T12:02:01.330Z,613.12
2022-08-05T12:03:01.351Z,618.75
2022-08-05T12:04:01.352Z,630.00
2022-08-05T12:05:01.330Z,618.75
2022-08-05T12:06:02.324Z,613.12
2022-08-05T12:07:01.282Z,590.62
2022-08-05T12:08:03.226Z,551.25
2022-08-05T12:09:02.303Z,523.12
2022-08-05T12:10:08.993Z,506.25
2022-08-05T12:11:06.024Z,478.12
2022-08-05T12:12:01.279Z,438.75
2022-08-05T12:13:01.250Z,416.25
2022-08-05T12:14:04.114Z,388.12
2022-08-05T12:15:01.256Z,365.62
2022-08-05T12:16:01.233Z,331.88
2022-08-05T12:17:01.556Z,315.00
2022-08-05T12:18:04.042Z,309.38
2022-08-05T12:19:02.200Z,303.75
2022-08-05T12:20:27.463Z,326.25
2022-08-05T12:21:02.225Z,354.38
2022-08-05T12:22:01.387Z,405.00
2022-08-05T12:23:01.167Z,450.00
2022-08-05T12:24:05.174Z,506.25
2022-08-05T12:25:02.161Z,545.62
2022-08-05T12:26:01.167Z,573.75
2022-08-05T12:27:01.167Z,585.00
2022-08-05T12:28:02.346Z,585.00
2022-08-05T12:29:01.522Z,585.00
2022-08-05T12:30:01.126Z,601.88
2022-08-05T12:31:02.224Z,624.38
2022-08-05T12:32:01.833Z,635.62
2022-08-05T12:33:07.165Z,635.62
2022-08-05T12:34:02.089Z,658.12
2022-08-05T12:35:03.970Z,635.62
2022-08-05T12:36:01.144Z,658.12
2022-08-05T12:37:01.103Z,652.50
2022-08-05T12:38:01.064Z,630.00
2022-08-05T12:39:01.207Z,613.12
2022-08-05T12:40:05.154Z,596.25
2022-08-05T12:41:02.027Z,579.38
2022-08-05T12:42:01.062Z,551.25
2022-08-05T12:43:01.051Z,540.00
2022-08-05T12:44:01.026Z,556.88
2022-08-05T12:45:01.069Z,590.62
2022-08-05T12:46:01.022Z,596.25
2022-08-05T12:47:01.680Z,618.75
2022-08-05T12:48:27.592Z,618.75
2022-08-05T12:49:13.102Z,624.38
2022-08-05T12:50:06.399Z,630.00
2022-08-05T12:51:01.988Z,624.38
2022-08-05T12:52:13.552Z,624.38
2022-08-05T12:53:01.991Z,635.62
2022-08-05T12:54:00.938Z,630.00
2022-08-05T12:55:00.950Z,618.75
2022-08-05T12:56:00.946Z,596.25
2022-08-05T12:57:00.934Z,585.00
2022-08-05T12:58:49.053Z,551.25
2022-08-05T12:59:03.646Z,500.62
2022-08-05T13:01:56.959Z,461.25
2022-08-05T13:02:03.859Z,438.75
2022-08-05T13:02:06.853Z,427.50
2022-08-05T13:03:03.051Z,433.12
2022-08-05T13:04:00.860Z,472.50
2022-08-05T13:05:00.946Z,506.25
2022-08-05T13:06:01.196Z,545.62
2022-08-05T13:07:00.850Z,568.12
2022-08-05T13:08:01.401Z,579.38
2022-08-05T13:09:01.814Z,585.00
2022-08-05T13:10:01.066Z,573.75
2022-08-05T13:11:00.849Z,551.25
2022-08-05T13:12:02.524Z,540.00
2022-08-05T13:13:00.783Z,517.50
2022-08-05T13:14:04.840Z,483.75
2022-08-05T13:15:05.568Z,489.38
2022-08-05T13:16:01.815Z,500.62
2022-08-05T13:17:00.794Z,511.88
2022-08-05T13:18:00.793Z,511.88
2022-08-05T13:19:00.757Z,495.00
2022-08-05T13:20:00.850Z,466.88